createdAt,value
2019-02-15T00:00:54.485Z,95367.37
2019-02-15T00:15:51.547Z,95369.98
2019-02-15T00:30:51.519Z,95364.86
2019-02-15T00:45:59.436Z,95362.66
2019-02-15T01:00:57.284Z,95354.16
2019-02-15T01:15:53.862Z,95337.14
2019-02-15T01:30:55.152Z,95347.45
2019-02-15T01:45:55.820Z,95347.58
2019-02-15T02:00:50.967Z,95345.93
2019-02-15T02:15:50.764Z,95344.91
2019-02-15T02:30:52.365Z,95324.92
2019-02-15T02:45:51.276Z,95323.13
2019-02-15T03:00:51.207Z,95327.54
2019-02-15T03:15:51.067Z,95333.56
2019-02-15T03:30:50.703Z,95330.41
2019-02-15T03:45:52.792Z,95339.05
2019-02-15T04:00:52.636Z,95339.09
2019-02-15T04:15:51.669Z,95335.38
2019-02-15T04:30:53.595Z,95353.73
2019-02-15T04:45:51.030Z,95365.29
2019-02-15T05:00:51.548Z,95382.39
2019-02-15T05:15:53.441Z,95385.55
2019-02-15T05:30:50.846Z,95408.52
2019-02-15T05:45:50.697Z,95441.19
2019-02-15T06:00:57.286Z,95471.39
2019-02-15T06:15:50.928Z,95495.42
2019-02-15T06:30:51.056Z,95490.70
2019-02-15T06:45:50.962Z,95508.42
2019-02-15T07:15:50.501Z,95534.40
2019-02-15T07:30:50.405Z,95539.96
2019-02-15T07:45:51.709Z,95530.99
2019-02-15T08:00:50.830Z,95524.07
2019-02-15T08:15:52.196Z,95534.05
2019-02-15T08:30:52.684Z,95541.53
2019-02-15T08:45:49.488Z,95555.34
2019-02-15T09:00:52.810Z,95552.95
2019-02-15T09:15:50.813Z,95553.88
2019-02-15T09:30:52.644Z,95570.84
2019-02-15T09:45:50.761Z,95577.27
2019-02-15T10:00:50.741Z,95576.56
2019-02-15T10:15:52.203Z,95561.55
2019-02-15T10:30:53.408Z,95573.58
2019-02-15T10:45:51.411Z,95589.55
2019-02-15T11:00:50.783Z,95594.95
2019-02-15T11:15:50.789Z,95602.14
2019-02-15T11:30:50.656Z,95622.08
2019-02-15T11:45:50.555Z,95612.44
2019-02-15T12:00:51.050Z,95624.29
2019-02-15T12:15:51.340Z,95615.75
2019-02-15T12:30:53.320Z,95617.02
2019-02-15T12:45:51.247Z,95614.02
2019-02-15T13:00:50.995Z,95600.91
2019-02-15T13:15:51.160Z,95589.11
2019-02-15T13:30:50.539Z,95607.00
2019-02-15T13:45:50.936Z,95610.41
2019-02-15T14:00:50.941Z,95620.55
2019-02-15T14:15:51.295Z,95624.69
2019-02-15T14:30:51.083Z,95605.16
2019-02-15T14:45:51.027Z,95604.92
2019-02-15T15:00:57.320Z,95619.42
2019-02-15T15:15:51.528Z,95602.48
2019-02-15T15:30:51.884Z,95598.20
2019-02-15T15:45:51.345Z,95629.19
2019-02-15T16:00:52.221Z,95645.60
2019-02-15T16:15:50.854Z,95661.19
2019-02-15T16:30:53.900Z,95677.41
2019-02-15T16:45:51.800Z,95688.86
2019-02-15T17:00:51.468Z,95717.30
2019-02-15T17:15:51.232Z,95733.30
2019-02-15T17:30:51.249Z,95749.61
2019-02-15T17:45:53.342Z,95763.84
2019-02-15T18:00:57.225Z,95750.70
2019-02-15T18:15:51.147Z,95765.64
2019-02-15T18:30:51.497Z,95767.11
2019-02-15T19:00:50.953Z,95784.83
2019-02-15T19:15:50.609Z,95772.34
2019-02-15T19:30:50.489Z,95778.59
2019-02-15T19:45:53.559Z,95774.03
2019-02-15T20:00:51.068Z,95773.52
2019-02-15T20:15:51.008Z,95764.63
2019-02-15T20:30:55.971Z,95760.20
2019-02-15T20:45:50.890Z,95763.61
2019-02-15T21:15:50.901Z,95774.98
2019-02-15T21:30:53.099Z,95778.81
2019-02-15T21:45:51.557Z,95780.92
2019-02-15T22:00:53.515Z,95787.41
2019-02-15T22:15:51.401Z,95783.83
2019-02-15T22:30:51.429Z,95787.02
2019-02-15T22:45:50.765Z,95791.80
2019-02-15T23:15:51.647Z,95788.34
2019-02-15T23:30:51.472Z,95784.19
2019-02-15T23:45:50.894Z,95787.70
